createdAt,value
2022-12-04T00:02:20.037Z,20.83
2022-12-04T00:07:22.778Z,20.83
2022-12-04T00:12:26.000Z,20.82
2022-12-04T00:17:30.177Z,20.81
2022-12-04T00:22:33.054Z,20.81
2022-12-04T00:27:35.888Z,20.82
2022-12-04T00:32:39.971Z,20.80
2022-12-04T00:37:42.714Z,20.79
2022-12-04T00:42:45.499Z,20.80
2022-12-04T00:47:49.632Z,20.79
2022-12-04T00:52:52.545Z,20.78
2022-12-04T00:57:59.765Z,20.76
2022-12-04T01:03:04.393Z,20.75
2022-12-04T01:08:07.316Z,20.74
2022-12-04T01:13:10.187Z,20.71
2022-12-04T01:18:14.378Z,20.71
2022-12-04T01:23:17.309Z,20.72
2022-12-04T01:28:20.239Z,20.72
2022-12-04T01:33:24.346Z,20.69
2022-12-04T01:38:27.241Z,20.70
2022-12-04T01:43:30.980Z,20.68
2022-12-04T01:48:36.035Z,20.69
2022-12-04T01:53:40.306Z,20.68
2022-12-04T01:58:44.357Z,20.69
2022-12-04T02:03:48.479Z,20.66
2022-12-04T02:08:51.244Z,20.69
2022-12-04T02:13:58.394Z,20.69
2022-12-04T02:19:06.117Z,20.69
2022-12-04T02:24:32.470Z,20.69
2022-12-04T02:29:38.219Z,20.69
2022-12-04T02:34:43.030Z,20.70
2022-12-04T02:39:49.238Z,20.69
2022-12-04T02:44:54.457Z,20.73
2022-12-04T02:49:58.853Z,20.73
2022-12-04T02:55:08.191Z,20.72
2022-12-04T03:00:14.354Z,20.72
2022-12-04T03:05:18.184Z,20.72
2022-12-04T03:10:23.892Z,20.60
2022-12-04T03:15:30.578Z,20.70
2022-12-04T03:20:33.968Z,20.76
2022-12-04T03:25:38.355Z,20.76
2022-12-04T03:30:44.339Z,20.81
2022-12-04T03:35:48.632Z,20.87
2022-12-04T03:40:55.779Z,20.87
2022-12-04T03:46:00.771Z,20.80
2022-12-04T03:51:06.588Z,20.67
2022-12-04T03:56:11.186Z,20.75
2022-12-04T04:01:15.487Z,20.82
2022-12-04T04:06:20.159Z,20.86
2022-12-04T04:11:24.979Z,20.89
2022-12-04T04:16:47.353Z,20.93
2022-12-04T04:22:08.334Z,20.99
2022-12-04T04:27:11.146Z,21.00
2022-12-04T04:32:15.906Z,21.02
2022-12-04T04:37:24.700Z,21.06
2022-12-04T04:42:28.749Z,21.08
2022-12-04T04:47:34.612Z,21.11
2022-12-04T04:52:37.511Z,21.17
2022-12-04T04:57:40.299Z,21.20
2022-12-04T05:02:44.667Z,21.23
2022-12-04T05:07:47.605Z,21.29
2022-12-04T05:12:50.416Z,21.32
2022-12-04T05:17:54.511Z,21.36
2022-12-04T05:22:57.356Z,21.39
2022-12-04T05:28:00.152Z,21.44
2022-12-04T05:33:04.546Z,21.46
2022-12-04T05:38:07.306Z,21.48
2022-12-04T05:43:10.084Z,21.50
2022-12-04T05:48:14.306Z,21.55
2022-12-04T05:53:17.179Z,21.56
2022-12-04T05:58:19.953Z,21.60
2022-12-04T06:03:24.179Z,21.61
2022-12-04T06:08:27.118Z,21.63
2022-12-04T06:13:29.888Z,21.66
2022-12-04T06:18:34.069Z,21.65
2022-12-04T06:23:36.995Z,21.62
2022-12-04T06:28:39.732Z,21.64
2022-12-04T06:33:43.944Z,21.65
2022-12-04T06:38:47.474Z,21.64
2022-12-04T06:43:51.539Z,21.63
2022-12-04T06:48:56.476Z,21.63
2022-12-04T06:53:59.452Z,21.64
2022-12-04T06:59:03.017Z,21.62
2022-12-04T07:04:07.208Z,21.62
2022-12-04T07:09:11.160Z,21.59
2022-12-04T07:14:14.044Z,21.62
2022-12-04T07:19:18.168Z,21.60
2022-12-04T07:24:21.043Z,21.59
2022-12-04T07:29:23.820Z,21.57
2022-12-04T07:34:28.252Z,21.55
2022-12-04T07:39:31.177Z,21.53
2022-12-04T07:44:33.973Z,21.52
2022-12-04T07:49:38.626Z,21.55
2022-12-04T07:54:41.582Z,21.51
2022-12-04T07:59:44.449Z,21.55
2022-12-04T08:04:48.880Z,21.52
2022-12-04T08:09:51.759Z,21.13
2022-12-04T08:14:54.493Z,20.74
2022-12-04T08:19:58.855Z,20.66
2022-12-04T08:25:01.757Z,20.89
2022-12-04T08:30:04.999Z,21.11
2022-12-04T08:35:09.899Z,21.34
2022-12-04T08:40:14.149Z,21.54
2022-12-04T08:45:17.120Z,21.72
2022-12-04T08:50:21.231Z,21.85
2022-12-04T08:55:24.064Z,21.92
2022-12-04T09:00:27.272Z,21.93
2022-12-04T09:05:31.753Z,21.93
2022-12-04T09:10:35.217Z,21.92
2022-12-04T09:15:39.780Z,21.91
2022-12-04T09:20:44.036Z,21.85
2022-12-04T09:25:46.895Z,21.81
2022-12-04T09:30:58.055Z,21.84
2022-12-04T09:36:02.242Z,21.80
2022-12-04T09:41:08.316Z,21.80
2022-12-04T09:46:12.799Z,21.78
2022-12-04T09:51:19.600Z,21.80
2022-12-04T09:56:22.794Z,21.79
2022-12-04T10:01:26.363Z,21.73
2022-12-04T10:06:33.164Z,21.76
2022-12-04T10:11:41.486Z,21.77
2022-12-04T10:16:51.380Z,21.86
2022-12-04T10:22:00.456Z,21.94
2022-12-04T10:27:05.715Z,21.96
2022-12-04T10:32:17.329Z,21.96
2022-12-04T10:37:21.755Z,21.93
2022-12-04T10:42:28.375Z,21.92
2022-12-04T10:47:31.888Z,21.90
2022-12-04T10:52:36.091Z,21.90
2022-12-04T10:57:40.038Z,21.88
2022-12-04T11:02:43.082Z,21.84
2022-12-04T11:07:48.092Z,21.83
2022-12-04T11:12:57.575Z,21.86
2022-12-04T11:18:08.973Z,21.84
2022-12-04T11:23:15.113Z,21.83
2022-12-04T11:28:39.871Z,21.74
2022-12-04T11:33:46.709Z,21.85
2022-12-04T11:38:50.855Z,21.92
2022-12-04T11:43:59.383Z,21.98
2022-12-04T11:49:04.012Z,22.08
2022-12-04T11:54:15.579Z,22.18
2022-12-04T11:59:37.558Z,22.16
2022-12-04T12:04:58.335Z,22.11
2022-12-04T12:10:05.041Z,22.05
2022-12-04T12:15:12.980Z,21.98
2022-12-04T12:20:17.701Z,21.91
2022-12-04T12:25:22.799Z,21.93
2022-12-04T12:30:25.583Z,21.91
2022-12-04T12:35:30.497Z,21.90
2022-12-04T12:40:36.296Z,21.93
2022-12-04T12:45:42.846Z,21.96
2022-12-04T12:50:54.714Z,21.98
2022-12-04T12:56:10.716Z,21.92
2022-12-04T13:01:18.358Z,21.93
2022-12-04T13:06:24.287Z,21.93
2022-12-04T13:11:28.707Z,21.79
2022-12-04T13:16:34.343Z,21.92
2022-12-04T13:21:38.401Z,21.95
2022-12-04T13:26:49.524Z,21.99
2022-12-04T13:31:55.645Z,22.10
2022-12-04T13:37:16.210Z,22.08
2022-12-04T13:42:23.488Z,22.05
2022-12-04T13:47:28.145Z,22.04
2022-12-04T13:52:40.483Z,22.03
2022-12-04T13:57:54.035Z,22.04
2022-12-04T14:02:57.546Z,22.05
2022-12-04T14:08:07.337Z,22.01
2022-12-04T14:13:19.142Z,22.01
2022-12-04T14:18:27.027Z,21.98
2022-12-04T14:23:35.597Z,21.95
2022-12-04T14:28:43.793Z,21.92
2022-12-04T14:33:49.451Z,21.89
2022-12-04T14:38:59.281Z,21.91
2022-12-04T14:44:03.434Z,21.85
2022-12-04T14:49:15.087Z,21.78
2022-12-04T14:54:22.068Z,21.76
2022-12-04T14:59:29.737Z,21.89
2022-12-04T15:04:34.088Z,21.92
2022-12-04T15:09:54.658Z,22.06
2022-12-04T15:14:58.959Z,22.15
2022-12-04T15:20:10.168Z,22.13
2022-12-04T15:25:18.525Z,22.16
2022-12-04T15:30:23.690Z,22.17
2022-12-04T15:35:28.250Z,22.09
2022-12-04T15:40:31.305Z,22.11
2022-12-04T15:45:35.427Z,22.10
2022-12-04T15:50:38.411Z,22.05
2022-12-04T15:55:49.508Z,22.07
2022-12-04T16:00:56.695Z,22.02
2022-12-04T16:06:07.761Z,22.07
2022-12-04T16:11:24.416Z,21.92
2022-12-04T16:16:28.712Z,21.81
2022-12-04T16:21:32.079Z,21.81
2022-12-04T16:26:35.055Z,21.82
2022-12-04T16:31:39.545Z,21.78
2022-12-04T16:36:42.504Z,21.79
2022-12-04T16:41:45.259Z,21.89
2022-12-04T16:46:49.693Z,21.94
2022-12-04T16:51:52.503Z,22.03
2022-12-04T16:56:55.408Z,22.06
2022-12-04T17:01:59.597Z,21.98
2022-12-04T17:07:02.403Z,21.95
2022-12-04T17:12:05.415Z,21.89
2022-12-04T17:17:09.536Z,21.89
2022-12-04T17:22:14.155Z,21.83
2022-12-04T17:27:16.887Z,21.81
2022-12-04T17:32:21.022Z,21.82
2022-12-04T17:37:23.778Z,21.81
2022-12-04T17:42:26.580Z,21.79
2022-12-04T17:47:30.726Z,21.83
2022-12-04T17:52:33.862Z,21.81
2022-12-04T17:57:36.689Z,21.83
2022-12-04T18:02:42.538Z,21.84
2022-12-04T18:07:45.486Z,21.87
2022-12-04T18:12:48.278Z,21.87
2022-12-04T18:17:52.440Z,21.80
2022-12-04T18:22:55.368Z,21.80
2022-12-04T18:27:59.449Z,21.86
2022-12-04T18:33:03.690Z,21.82
2022-12-04T18:38:06.456Z,21.81
2022-12-04T18:43:09.290Z,21.82
2022-12-04T18:48:14.801Z,21.76
2022-12-04T18:53:18.529Z,21.84
2022-12-04T18:58:22.607Z,21.81
2022-12-04T19:03:26.698Z,21.82
2022-12-04T19:08:33.221Z,21.83
2022-12-04T19:13:37.817Z,21.81
2022-12-04T19:18:42.304Z,21.81
2022-12-04T19:23:50.079Z,21.84
2022-12-04T19:28:53.921Z,21.84
2022-12-04T19:33:58.037Z,21.84
2022-12-04T19:39:01.335Z,21.86
2022-12-04T19:44:20.010Z,21.83
2022-12-04T19:49:28.567Z,21.83
2022-12-04T19:54:31.761Z,21.84
2022-12-04T19:59:37.772Z,21.84
2022-12-04T20:04:44.136Z,21.83
2022-12-04T20:09:51.926Z,21.84
2022-12-04T20:14:55.331Z,21.84
2022-12-04T20:19:59.719Z,21.87
2022-12-04T20:25:02.880Z,21.82
2022-12-04T20:30:07.184Z,21.82
2022-12-04T20:35:11.504Z,21.82
2022-12-04T20:40:14.584Z,21.84
2022-12-04T20:45:17.570Z,21.82
2022-12-04T20:50:21.716Z,21.85
2022-12-04T20:55:24.573Z,21.81
2022-12-04T21:00:28.572Z,21.84
2022-12-04T21:05:32.827Z,21.85
2022-12-04T21:10:35.769Z,21.85
2022-12-04T21:15:55.993Z,21.85
2022-12-04T21:21:00.138Z,21.85
2022-12-04T21:26:03.378Z,21.86
2022-12-04T21:31:06.753Z,21.85
2022-12-04T21:36:11.431Z,21.83
2022-12-04T21:41:35.080Z,21.83
2022-12-04T21:46:37.964Z,21.81
2022-12-04T21:51:58.842Z,21.75
2022-12-04T21:57:02.134Z,21.82
2022-12-04T22:02:04.958Z,21.81
2022-12-04T22:07:09.197Z,21.78
2022-12-04T22:12:41.375Z,21.75
2022-12-04T22:17:34.843Z,21.71
2022-12-04T22:22:39.020Z,21.64
2022-12-04T22:27:41.829Z,21.57
2022-12-04T22:32:45.218Z,21.54
2022-12-04T22:37:49.536Z,21.51
2022-12-04T22:42:52.290Z,21.45
2022-12-04T22:47:55.074Z,21.41
2022-12-04T22:52:59.305Z,21.39
2022-12-04T22:58:02.127Z,21.34
2022-12-04T23:03:05.117Z,21.33
2022-12-04T23:08:10.005Z,21.33
2022-12-04T23:13:12.850Z,21.36
2022-12-04T23:18:15.627Z,21.41
2022-12-04T23:23:19.946Z,21.44
2022-12-04T23:28:23.166Z,21.42
2022-12-04T23:33:26.168Z,21.40
2022-12-04T23:38:30.391Z,21.43
2022-12-04T23:43:33.271Z,21.36
2022-12-04T23:48:36.231Z,21.33
2022-12-04T23:53:40.507Z,21.29
2022-12-04T23:58:43.572Z,21.29
